Time;durP1;ratioP1;P1;durP2;ratioP2;P2;SDS_P1;SDS_P2;PMS_P1;PMS_P2;Temp;Humidity;BMP_temperature;BMP_pressure;BME280_temperature;BME280_humidity;BME280_pressure;Samples;Min_cycle;Max_cycle;Signal;HPM_P1;HPM_P2
2021/10/23 00:00:29;;;;;;;441.17;398.98;;;9.80;99.90;;;;;;5100480;28;20196;-77
2021/10/23 00:02:56;;;;;;;430.35;388.73;;;9.80;99.90;;;;;;5101177;28;20192;-77
2021/10/23 00:05:24;;;;;;;425.95;386.40;;;9.70;99.90;;;;;;5102319;28;20236;-77
2021/10/23 00:07:51;;;;;;;442.48;400.65;;;9.70;99.90;;;;;;5101406;28;20292;-76
2021/10/23 00:10:20;;;;;;;441.63;399.63;;;9.60;99.90;;;;;;5101906;28;20227;-76
2021/10/23 00:12:47;;;;;;;436.45;393.02;;;9.60;99.90;;;;;;5100981;28;20199;-76
2021/10/23 00:15:14;;;;;;;413.70;373.88;;;9.60;99.90;;;;;;5100226;28;20296;-76
2021/10/23 00:17:41;;;;;;;373.13;333.20;;;9.50;99.90;;;;;;5100493;28;20204;-76
2021/10/23 00:20:09;;;;;;;387.13;348.60;;;9.40;99.90;;;;;;5100501;28;20204;-76
2021/10/23 00:22:36;;;;;;;416.10;374.67;;;9.30;99.90;;;;;;5099346;28;20200;-77
2021/10/23 00:25:04;;;;;;;412.90;371.73;;;9.30;99.90;;;;;;5100178;28;20207;-76
2021/10/23 00:27:33;;;;;;;429.85;388.45;;;9.30;99.90;;;;;;5099499;28;20244;-76
2021/10/23 00:30:00;;;;;;;375.58;336.48;;;9.30;99.90;;;;;;5099521;28;20227;-76
2021/10/23 00:32:27;;;;;;;374.25;334.73;;;9.30;99.90;;;;;;5098876;28;20196;-76
2021/10/23 00:34:54;;;;;;;388.50;349.30;;;9.20;99.90;;;;;;5100814;28;20278;-76
2021/10/23 00:37:21;;;;;;;401.60;361.45;;;9.30;99.90;;;;;;5099725;28;20204;-76
2021/10/23 00:39:48;;;;;;;369.83;330.25;;;9.20;99.90;;;;;;5101318;28;20211;-76
2021/10/23 00:42:16;;;;;;;401.05;360.60;;;9.20;99.90;;;;;;5100777;28;20233;-76
2021/10/23 00:44:45;;;;;;;411.30;371.02;;;9.20;99.90;;;;;;5099160;28;20216;-76
2021/10/23 00:47:14;;;;;;;407.65;368.45;;;9.20;99.90;;;;;;5100722;28;20204;-76
2021/10/23 00:49:41;;;;;;;405.20;363.85;;;9.20;99.90;;;;;;5100208;28;20231;-77
2021/10/23 00:52:09;;;;;;;420.98;379.45;;;9.20;99.90;;;;;;5100271;28;20294;-76
2021/10/23 00:54:37;;;;;;;405.17;364.13;;;9.20;99.90;;;;;;5100643;28;20724;-76
2021/10/23 00:57:06;;;;;;;368.88;330.55;;;9.20;99.90;;;;;;5098797;28;20212;-76
2021/10/23 00:59:33;;;;;;;399.98;359.88;;;9.10;99.90;;;;;;5099929;28;20253;-76
2021/10/23 01:02:02;;;;;;;400.88;359.88;;;9.10;99.90;;;;;;5099201;28;20215;-76
2021/10/23 01:04:29;;;;;;;409.42;368.67;;;9.00;99.90;;;;;;5099998;28;20265;-76
2021/10/23 01:06:56;;;;;;;404.50;363.05;;;9.00;99.90;;;;;;5100567;28;20204;-76
2021/10/23 01:09:23;;;;;;;364.08;323.92;;;9.00;99.90;;;;;;5099149;28;20221;-76
2021/10/23 01:11:51;;;;;;;400.88;359.95;;;9.10;99.90;;;;;;5099746;28;20787;-76
2021/10/23 01:14:20;;;;;;;416.63;373.88;;;9.10;99.90;;;;;;5103101;28;20607;-76
2021/10/23 01:16:49;;;;;;;348.88;307.13;;;9.20;99.90;;;;;;5102927;28;20249;-76
2021/10/23 01:19:18;;;;;;;393.33;354.23;;;9.20;99.90;;;;;;5102145;28;20207;-76
2021/10/23 01:21:50;;;;;;;399.00;357.45;;;9.20;99.90;;;;;;5103756;28;20203;-76
2021/10/23 01:24:18;;;;;;;400.10;358.50;;;9.10;99.90;;;;;;5102895;28;20204;-76
2021/10/23 01:26:45;;;;;;;414.50;373.55;;;9.10;99.90;;;;;;5102350;28;20204;-76
2021/10/23 01:29:15;;;;;;;409.55;368.27;;;9.10;99.90;;;;;;5103633;28;20297;-76
2021/10/23 01:31:43;;;;;;;370.75;332.63;;;9.10;99.90;;;;;;5103653;28;20692;-76
2021/10/23 01:34:12;;;;;;;381.40;340.98;;;9.10;99.90;;;;;;5102720;28;20208;-76
2021/10/23 01:36:43;;;;;;;361.27;318.05;;;9.20;99.90;;;;;;5100951;28;20288;-76
2021/10/23 01:39:12;;;;;;;362.08;323.40;;;9.20;99.90;;;;;;5103270;28;20222;-76
2021/10/23 01:41:40;;;;;;;405.40;363.73;;;9.20;99.90;;;;;;5104298;28;20643;-76
2021/10/23 01:44:08;;;;;;;404.80;363.92;;;9.30;99.90;;;;;;5104065;28;20236;-77
2021/10/23 01:46:35;;;;;;;410.42;368.90;;;9.20;99.90;;;;;;5102459;28;20204;-76
2021/10/23 01:49:02;;;;;;;404.85;363.48;;;9.30;99.90;;;;;;5101727;28;20464;-76
2021/10/23 01:51:30;;;;;;;423.98;381.10;;;9.30;99.90;;;;;;5102093;28;21984;-76
2021/10/23 01:53:57;;;;;;;394.70;355.13;;;9.30;99.90;;;;;;5102471;28;20196;-76
2021/10/23 01:56:26;;;;;;;418.17;377.05;;;9.20;99.90;;;;;;5102609;28;20199;-76
2021/10/23 01:58:53;;;;;;;397.58;356.05;;;9.30;99.90;;;;;;5102270;28;20204;-76
2021/10/23 02:01:20;;;;;;;423.17;382.48;;;9.30;99.90;;;;;;5103019;28;20214;-76
2021/10/23 02:03:46;;;;;;;414.50;373.25;;;9.20;99.90;;;;;;5101591;28;20203;-76
2021/10/23 02:06:14;;;;;;;399.08;357.52;;;9.20;99.90;;;;;;5101675;28;20306;-76
2021/10/23 02:08:41;;;;;;;418.88;376.58;;;9.10;99.90;;;;;;5101066;28;20295;-76
2021/10/23 02:11:07;;;;;;;361.75;322.63;;;9.10;99.90;;;;;;5101814;28;20296;-76
2021/10/23 02:13:36;;;;;;;356.65;314.90;;;9.00;99.90;;;;;;5101716;28;20200;-76
2021/10/23 02:16:03;;;;;;;401.30;358.65;;;9.10;99.90;;;;;;5102515;28;20207;-76
2021/10/23 02:18:30;;;;;;;381.60;341.35;;;9.00;99.90;;;;;;5101784;28;20203;-76
2021/10/23 02:20:58;;;;;;;401.10;360.05;;;9.00;99.90;;;;;;5101944;28;20200;-76
2021/10/23 02:23:25;;;;;;;392.75;350.88;;;9.00;99.90;;;;;;5101708;28;20200;-76
2021/10/23 02:25:52;;;;;;;407.38;365.60;;;9.00;99.90;;;;;;5101877;28;20208;-76
2021/10/23 02:28:20;;;;;;;424.40;381.33;;;8.90;99.90;;;;;;5102195;28;20219;-76
2021/10/23 02:30:48;;;;;;;401.67;361.13;;;8.90;99.90;;;;;;5101062;28;20232;-76
2021/10/23 02:33:15;;;;;;;394.77;352.45;;;8.90;99.90;;;;;;5100388;28;20233;-76
2021/10/23 02:35:42;;;;;;;413.75;371.90;;;8.90;99.90;;;;;;5100940;28;20447;-76
2021/10/23 02:38:10;;;;;;;390.60;350.75;;;8.90;99.90;;;;;;5100944;28;20201;-76
2021/10/23 02:40:37;;;;;;;367.17;323.60;;;8.90;99.90;;;;;;5101639;28;20226;-76
2021/10/23 02:43:05;;;;;;;408.08;366.52;;;8.80;99.90;;;;;;5103276;28;20204;-76
2021/10/23 02:45:33;;;;;;;401.58;361.33;;;8.80;99.90;;;;;;5100977;28;20208;-76
2021/10/23 02:48:01;;;;;;;393.38;352.55;;;8.80;99.90;;;;;;5100021;28;20262;-76
2021/10/23 02:50:28;;;;;;;408.15;365.98;;;8.80;99.90;;;;;;5100216;28;20224;-76
2021/10/23 02:52:55;;;;;;;401.65;361.35;;;8.80;99.90;;;;;;5100884;28;20211;-76
2021/10/23 02:55:22;;;;;;;386.30;346.10;;;8.70;99.90;;;;;;5082701;28;21471;-76
2021/10/23 02:57:49;;;;;;;349.27;310.88;;;8.70;99.90;;;;;;5100878;28;20226;-76
2021/10/23 03:00:17;;;;;;;399.27;358.23;;;8.70;99.90;;;;;;5100383;28;20685;-76
2021/10/23 03:02:45;;;;;;;381.15;339.15;;;8.70;99.90;;;;;;5101057;28;20217;-76
2021/10/23 03:05:14;;;;;;;350.50;309.10;;;8.80;99.90;;;;;;5087959;28;20255;-76
2021/10/23 03:07:41;;;;;;;412.40;370.52;;;8.80;99.90;;;;;;5081029;28;20208;-76
2021/10/23 03:10:09;;;;;;;397.55;357.17;;;8.80;99.90;;;;;;5079454;28;20239;-76
2021/10/23 03:12:36;;;;;;;356.30;313.75;;;8.70;99.90;;;;;;5081753;28;20223;-76
2021/10/23 03:15:04;;;;;;;352.23;303.48;;;8.70;99.90;;;;;;5080152;28;20238;-76
2021/10/23 03:17:31;;;;;;;353.00;297.60;;;8.70;99.90;;;;;;5079622;28;20274;-76
2021/10/23 03:19:59;;;;;;;381.52;339.45;;;8.70;99.90;;;;;;5079925;28;20241;-76
2021/10/23 03:22:28;;;;;;;386.35;345.13;;;8.70;99.90;;;;;;5080707;28;20205;-77
2021/10/23 03:24:55;;;;;;;386.67;345.52;;;8.70;99.90;;;;;;5081513;28;20207;-76
2021/10/23 03:27:23;;;;;;;343.35;286.77;;;8.60;99.90;;;;;;5082447;28;20207;-76
2021/10/23 03:29:51;;;;;;;373.10;330.33;;;8.50;99.90;;;;;;5082055;28;20231;-77
2021/10/23 03:32:18;;;;;;;372.50;313.90;;;8.50;99.90;;;;;;5081844;28;20240;-77
2021/10/23 03:34:47;;;;;;;379.05;337.30;;;8.50;99.90;;;;;;5079280;28;20197;-76
2021/10/23 03:37:14;;;;;;;398.67;356.77;;;8.50;99.90;;;;;;5079993;28;20212;-77
2021/10/23 03:39:43;;;;;;;354.42;292.13;;;8.50;99.90;;;;;;5080354;28;20246;-77
2021/10/23 03:42:10;;;;;;;350.23;277.75;;;8.50;99.90;;;;;;5081094;28;20200;-76
2021/10/23 03:44:37;;;;;;;346.98;288.58;;;8.50;99.90;;;;;;5080648;28;20200;-77
2021/10/23 03:47:05;;;;;;;386.80;345.95;;;8.40;99.90;;;;;;5081016;28;20231;-76
2021/10/23 03:49:32;;;;;;;378.63;338.45;;;8.40;99.90;;;;;;5081334;28;20253;-77
2021/10/23 03:51:59;;;;;;;353.40;313.70;;;8.30;99.90;;;;;;5081235;28;20201;-76
2021/10/23 03:54:26;;;;;;;386.52;344.77;;;8.30;99.90;;;;;;5081978;28;20196;-77
2021/10/23 03:57:02;;;;;;;335.98;273.25;;;8.30;99.90;;;;;;5080349;28;20243;-77
2021/10/23 03:59:31;;;;;;;350.67;308.98;;;8.30;99.90;;;;;;5080240;28;20200;-76
2021/10/23 04:01:58;;;;;;;336.83;261.23;;;8.30;99.90;;;;;;5079007;28;20200;-77
2021/10/23 04:04:27;;;;;;;358.92;312.05;;;8.30;99.90;;;;;;5079818;28;20197;-76
2021/10/23 04:06:54;;;;;;;370.90;327.23;;;8.20;99.90;;;;;;5079095;28;20254;-76
2021/10/23 04:09:21;;;;;;;362.85;314.90;;;8.20;99.90;;;;;;5080279;28;20560;-76
2021/10/23 04:11:48;;;;;;;340.77;281.98;;;8.20;99.90;;;;;;5080040;28;20212;-76
2021/10/23 04:14:17;;;;;;;345.05;303.75;;;8.10;99.90;;;;;;5079931;28;20224;-76
2021/10/23 04:16:44;;;;;;;358.33;318.73;;;8.20;99.90;;;;;;5078309;28;20238;-76
2021/10/23 04:19:11;;;;;;;334.27;280.52;;;8.20;99.90;;;;;;5079692;28;20643;-76
2021/10/23 04:21:38;;;;;;;335.92;260.73;;;8.10;99.90;;;;;;5081073;28;20219;-76
2021/10/23 04:24:07;;;;;;;351.60;292.73;;;8.10;99.90;;;;;;5079511;28;20221;-76
2021/10/23 04:26:34;;;;;;;359.50;305.90;;;8.10;99.90;;;;;;5079051;28;20211;-76
2021/10/23 04:29:01;;;;;;;359.10;317.13;;;8.10;99.90;;;;;;5078411;28;20278;-76
2021/10/23 04:31:29;;;;;;;361.33;310.05;;;8.00;99.90;;;;;;5080652;28;20228;-76
2021/10/23 04:33:57;;;;;;;352.10;297.38;;;8.00;99.90;;;;;;5080565;28;20238;-76
2021/10/23 04:36:24;;;;;;;345.00;283.73;;;7.90;99.90;;;;;;5079423;28;20285;-76
2021/10/23 04:38:51;;;;;;;332.50;261.70;;;7.90;99.90;;;;;;5079973;28;20202;-76
2021/10/23 04:41:18;;;;;;;338.50;258.30;;;7.90;99.90;;;;;;5080884;28;20197;-76
2021/10/23 04:43:45;;;;;;;343.52;299.40;;;7.90;99.90;;;;;;5080395;28;20213;-76
2021/10/23 04:46:12;;;;;;;350.30;300.27;;;7.80;99.90;;;;;;5077742;28;20222;-76
2021/10/23 04:48:40;;;;;;;345.63;278.83;;;7.80;99.90;;;;;;5081773;28;20193;-76
2021/10/23 04:51:07;;;;;;;336.27;260.15;;;7.80;99.90;;;;;;5082135;28;20270;-76
2021/10/23 04:53:34;;;;;;;363.33;315.27;;;7.80;99.90;;;;;;5083291;28;20234;-76
2021/10/23 04:56:01;;;;;;;363.70;309.50;;;7.80;99.90;;;;;;5083625;28;20226;-76
2021/10/23 04:58:28;;;;;;;342.08;263.63;;;7.90;99.90;;;;;;5081423;28;20226;-76
2021/10/23 05:00:56;;;;;;;361.48;312.65;;;7.90;99.90;;;;;;5081900;28;20205;-76
2021/10/23 05:03:23;;;;;;;372.77;316.25;;;8.00;99.90;;;;;;5083666;28;20235;-76
2021/10/23 05:05:52;;;;;;;369.30;324.42;;;8.00;99.90;;;;;;5093266;28;20258;-76
2021/10/23 05:08:19;;;;;;;363.17;318.27;;;8.00;99.90;;;;;;5103765;28;20234;-76
2021/10/23 05:10:46;;;;;;;334.52;253.13;;;8.00;99.90;;;;;;5102281;28;20987;-76
2021/10/23 05:13:13;;;;;;;362.67;316.10;;;8.00;99.90;;;;;;5103257;28;20222;-76
2021/10/23 05:15:40;;;;;;;372.63;311.10;;;8.00;99.90;;;;;;5102059;28;20623;-76
2021/10/23 05:18:07;;;;;;;353.65;273.20;;;8.00;99.90;;;;;;5103113;28;20204;-75
2021/10/23 05:20:34;;;;;;;359.45;279.15;;;8.10;99.90;;;;;;5103753;28;20212;-76
2021/10/23 05:23:03;;;;;;;360.85;275.95;;;8.20;99.90;;;;;;5104112;28;20207;-75
2021/10/23 05:25:30;;;;;;;382.20;323.90;;;8.20;99.90;;;;;;5102849;28;20212;-75
2021/10/23 05:27:57;;;;;;;402.42;311.60;;;8.30;99.90;;;;;;5104159;28;20208;-75
2021/10/23 05:30:24;;;;;;;405.35;337.05;;;8.30;99.90;;;;;;5103547;28;20231;-76
2021/10/23 05:32:52;;;;;;;391.90;325.88;;;8.30;99.90;;;;;;5102914;28;20212;-76
2021/10/23 05:35:19;;;;;;;422.70;318.65;;;8.30;99.90;;;;;;5102860;28;20204;-75
2021/10/23 05:37:46;;;;;;;392.98;335.08;;;8.40;99.90;;;;;;5103254;28;20203;-76
2021/10/23 05:40:16;;;;;;;392.00;330.38;;;8.40;99.90;;;;;;5102800;28;20212;-76
2021/10/23 05:42:43;;;;;;;413.88;351.55;;;8.50;99.90;;;;;;5102412;28;20227;-76
2021/10/23 05:45:10;;;;;;;398.42;355.98;;;8.50;99.90;;;;;;5101635;28;20207;-76
2021/10/23 05:47:37;;;;;;;395.73;335.58;;;8.50;99.90;;;;;;5101748;28;20288;-75
2021/10/23 05:50:07;;;;;;;399.75;357.85;;;8.60;99.90;;;;;;5101262;28;20225;-76
2021/10/23 05:52:34;;;;;;;383.38;323.52;;;8.60;99.90;;;;;;5102900;28;20246;-76
2021/10/23 05:55:01;;;;;;;378.15;333.50;;;8.70;99.90;;;;;;5103118;28;20204;-76
2021/10/23 05:57:29;;;;;;;407.23;346.90;;;8.80;99.90;;;;;;5101610;28;20209;-76
2021/10/23 05:59:56;;;;;;;387.00;322.35;;;8.90;99.90;;;;;;5101942;28;20200;-76
2021/10/23 06:02:24;;;;;;;393.38;333.25;;;8.90;99.90;;;;;;5101997;28;20273;-75
2021/10/23 06:04:53;;;;;;;365.58;308.45;;;8.90;99.90;;;;;;5101793;28;20231;-76
2021/10/23 06:07:20;;;;;;;405.25;363.58;;;8.90;99.90;;;;;;5102218;28;20196;-76
2021/10/23 06:09:48;;;;;;;425.23;381.25;;;9.00;99.90;;;;;;5101850;28;20241;-76
2021/10/23 06:12:15;;;;;;;430.00;385.55;;;9.00;99.90;;;;;;5101081;28;20281;-76
2021/10/23 06:14:44;;;;;;;660.95;613.50;;;9.00;99.90;;;;;;5101157;28;20460;-76
2021/10/23 06:17:11;;;;;;;469.65;424.90;;;9.10;99.90;;;;;;5101884;28;20192;-76
2021/10/23 06:19:39;;;;;;;466.75;420.67;;;9.10;99.90;;;;;;5102257;28;20237;-76
2021/10/23 06:22:06;;;;;;;408.63;364.73;;;9.20;99.90;;;;;;5102061;28;20208;-76
2021/10/23 06:24:34;;;;;;;424.85;379.17;;;9.30;99.90;;;;;;5102724;28;20819;-76
2021/10/23 06:27:01;;;;;;;396.88;353.60;;;9.30;99.90;;;;;;5102306;28;20196;-76
2021/10/23 06:29:29;;;;;;;461.00;412.98;;;9.40;99.90;;;;;;5101619;28;20207;-76
2021/10/23 06:31:58;;;;;;;421.35;376.27;;;9.40;99.90;;;;;;5101320;28;20231;-76
2021/10/23 06:34:25;;;;;;;437.30;390.08;;;9.40;99.90;;;;;;5102027;28;20241;-76
2021/10/23 06:36:52;;;;;;;439.85;389.98;;;9.50;99.90;;;;;;5102195;28;20204;-76
2021/10/23 06:39:19;;;;;;;420.35;375.15;;;9.60;99.90;;;;;;5101389;28;20204;-76
2021/10/23 06:41:46;;;;;;;472.92;425.27;;;9.60;99.90;;;;;;5102542;28;20215;-76
2021/10/23 06:44:13;;;;;;;471.70;415.45;;;9.60;99.90;;;;;;5101881;28;20677;-76
2021/10/23 06:46:42;;;;;;;416.08;359.17;;;9.60;99.90;;;;;;5101107;28;20221;-76
2021/10/23 06:49:10;;;;;;;481.67;430.30;;;9.60;99.90;;;;;;5101973;28;20203;-76
2021/10/23 06:51:38;;;;;;;435.92;379.98;;;9.70;99.90;;;;;;5101941;28;20573;-76
2021/10/23 06:54:06;;;;;;;421.23;365.67;;;9.80;99.90;;;;;;5101379;28;20211;-76
2021/10/23 06:56:33;;;;;;;466.63;418.55;;;9.90;99.90;;;;;;5100841;28;20200;-76
2021/10/23 06:59:00;;;;;;;482.67;402.73;;;9.90;99.90;;;;;;5100831;28;20241;-76
2021/10/23 07:01:27;;;;;;;486.48;437.65;;;10.00;99.90;;;;;;5101059;28;20209;-77
2021/10/23 07:03:55;;;;;;;426.45;379.25;;;10.00;99.90;;;;;;5101577;28;20203;-76
2021/10/23 07:06:24;;;;;;;448.95;401.83;;;10.10;99.90;;;;;;5101156;28;20322;-76
2021/10/23 07:08:50;;;;;;;447.58;398.42;;;10.20;99.90;;;;;;5100411;28;20212;-77
2021/10/23 07:11:17;;;;;;;446.23;397.45;;;10.20;99.90;;;;;;5100971;28;20281;-76
2021/10/23 07:13:44;;;;;;;478.70;427.20;;;10.30;99.90;;;;;;5102209;28;20208;-77
2021/10/23 07:16:12;;;;;;;472.60;422.90;;;10.30;99.90;;;;;;5102693;28;20204;-77
2021/10/23 07:18:39;;;;;;;494.92;445.60;;;10.30;99.90;;;;;;5103303;28;20195;-77
2021/10/23 07:21:06;;;;;;;504.33;454.23;;;10.10;99.90;;;;;;5102280;28;20229;-76
2021/10/23 07:23:34;;;;;;;451.15;403.10;;;10.20;99.90;;;;;;5102019;28;20222;-77
2021/10/23 07:26:01;;;;;;;507.75;458.70;;;10.20;99.90;;;;;;5101991;28;20203;-77
2021/10/23 07:28:28;;;;;;;453.58;406.65;;;10.20;99.90;;;;;;5101087;28;20257;-76
2021/10/23 07:30:55;;;;;;;511.08;461.55;;;10.30;99.90;;;;;;5100185;28;20231;-77
2021/10/23 07:33:22;;;;;;;494.55;446.15;;;10.40;99.90;;;;;;5100251;28;20235;-76
2021/10/23 07:35:49;;;;;;;462.50;414.25;;;10.40;99.90;;;;;;5101599;28;20208;-77
2021/10/23 07:38:17;;;;;;;527.55;477.90;;;10.30;99.90;;;;;;5101845;28;20230;-76
2021/10/23 07:40:45;;;;;;;526.30;477.48;;;10.40;99.90;;;;;;5102273;28;20218;-77
2021/10/23 07:43:13;;;;;;;508.77;459.27;;;10.40;99.90;;;;;;5099525;28;20208;-77
2021/10/23 07:45:40;;;;;;;522.47;472.65;;;10.40;99.90;;;;;;5098222;28;20295;-76
2021/10/23 07:48:07;;;;;;;531.72;483.00;;;10.40;99.90;;;;;;5098149;28;20204;-77
2021/10/23 07:50:34;;;;;;;469.67;421.65;;;10.50;99.90;;;;;;5098035;28;20200;-76
2021/10/23 07:53:02;;;;;;;479.00;429.80;;;10.60;99.90;;;;;;5099097;28;20735;-76
2021/10/23 07:55:32;;;;;;;528.60;479.23;;;10.60;99.90;;;;;;5098828;28;20227;-76
2021/10/23 07:58:01;;;;;;;557.78;507.33;;;10.70;99.90;;;;;;5099134;28;20204;-76
2021/10/23 08:00:28;;;;;;;496.38;447.75;;;10.80;99.90;;;;;;5100316;28;20204;-76
2021/10/23 08:02:57;;;;;;;521.03;472.30;;;10.80;99.90;;;;;;5080637;28;20208;-77
2021/10/23 08:05:24;;;;;;;536.22;486.25;;;10.90;99.90;;;;;;5085047;28;20259;-78
2021/10/23 08:07:54;;;;;;;550.80;500.95;;;11.00;99.90;;;;;;5085139;28;20204;-79
2021/10/23 08:10:23;;;;;;;515.67;466.75;;;11.10;99.90;;;;;;5102341;28;20206;-78
2021/10/23 08:12:50;;;;;;;490.98;443.58;;;11.10;99.90;;;;;;5104191;28;20647;-77
2021/10/23 08:15:19;;;;;;;536.30;488.13;;;11.20;99.90;;;;;;5103835;28;20207;-79
2021/10/23 08:17:46;;;;;;;513.20;465.42;;;11.20;99.90;;;;;;5103934;28;20234;-78
2021/10/23 08:20:15;;;;;;;580.75;531.58;;;11.20;99.90;;;;;;5102531;28;20200;-78
2021/10/23 08:22:42;;;;;;;579.13;529.28;;;11.20;99.90;;;;;;5106442;28;20650;-77
2021/10/23 08:25:12;;;;;;;569.95;509.60;;;11.20;99.90;;;;;;5106183;28;20275;-77
2021/10/23 08:27:41;;;;;;;599.90;538.38;;;11.30;99.90;;;;;;5105083;28;20245;-76
2021/10/23 08:30:11;;;;;;;532.70;459.20;;;11.30;99.90;;;;;;5105091;28;20242;-76
2021/10/23 08:32:41;;;;;;;566.35;507.08;;;11.30;99.90;;;;;;5104408;28;20224;-76
2021/10/23 08:35:09;;;;;;;568.05;507.70;;;11.40;99.90;;;;;;5104693;28;20203;-76
2021/10/23 08:37:36;;;;;;;600.30;539.65;;;11.30;99.90;;;;;;5103817;28;21022;-76
2021/10/23 08:40:03;;;;;;;592.15;531.65;;;11.30;99.90;;;;;;5102669;28;20217;-76
2021/10/23 08:42:30;;;;;;;566.33;507.33;;;11.40;99.90;;;;;;5104097;28;20230;-76
2021/10/23 08:45:00;;;;;;;572.08;511.85;;;11.50;99.90;;;;;;5103965;28;20211;-76
2021/10/23 08:47:28;;;;;;;582.97;522.58;;;11.60;99.90;;;;;;5103287;28;20200;-76
2021/10/23 08:49:58;;;;;;;608.30;547.17;;;11.70;99.90;;;;;;5103135;28;20231;-76
2021/10/23 08:52:27;;;;;;;600.03;540.05;;;11.80;99.90;;;;;;5104550;28;20318;-77
2021/10/23 08:54:54;;;;;;;569.67;509.98;;;11.70;99.90;;;;;;5103909;28;20330;-75
2021/10/23 08:57:25;;;;;;;527.92;465.52;;;11.80;99.90;;;;;;5105360;28;20226;-76
2021/10/23 08:59:52;;;;;;;582.58;522.83;;;11.80;99.90;;;;;;5106133;28;20212;-76
2021/10/23 09:02:20;;;;;;;547.33;488.92;;;11.80;99.90;;;;;;5103619;28;20208;-75
2021/10/23 09:04:49;;;;;;;593.00;531.53;;;11.80;99.90;;;;;;5103529;28;20291;-76
2021/10/23 09:07:18;;;;;;;600.08;539.08;;;11.90;99.90;;;;;;5103478;28;20201;-76
2021/10/23 09:09:47;;;;;;;582.15;523.03;;;12.00;99.90;;;;;;5103521;28;20200;-76
2021/10/23 09:12:22;;;;;;;559.97;501.65;;;12.10;99.90;;;;;;5104463;28;20230;-76
2021/10/23 09:14:59;;;;;;;617.65;556.65;;;12.20;99.90;;;;;;5086726;28;20204;-75
2021/10/23 09:17:26;;;;;;;641.20;580.03;;;12.30;99.90;;;;;;5103392;28;20214;-75
2021/10/23 09:19:55;;;;;;;636.13;574.00;;;12.40;99.90;;;;;;5103571;28;20224;-75
2021/10/23 09:22:27;;;;;;;631.72;570.10;;;12.40;99.90;;;;;;5103020;28;20223;-75
2021/10/23 09:25:09;;;;;;;626.10;565.47;;;12.50;99.90;;;;;;5102351;28;20212;-75
2021/10/23 09:27:36;;;;;;;653.20;592.03;;;12.70;99.90;;;;;;5101761;28;20213;-75
2021/10/23 09:30:11;;;;;;;604.53;543.72;;;12.80;99.90;;;;;;5102361;28;20204;-76
2021/10/23 09:32:38;;;;;;;673.70;611.33;;;12.80;99.90;;;;;;5102360;28;20297;-76
2021/10/23 09:35:12;;;;;;;660.90;600.33;;;12.80;99.90;;;;;;5102936;28;20234;-76
2021/10/23 09:37:44;;;;;;;690.00;628.22;;;12.90;99.90;;;;;;5102316;28;20230;-75
2021/10/23 09:40:12;;;;;;;652.63;591.13;;;13.00;99.90;;;;;;5103120;28;20290;-76
2021/10/23 09:42:39;;;;;;;673.40;610.92;;;12.90;99.90;;;;;;5103526;28;20206;-78
2021/10/23 09:45:07;;;;;;;614.92;553.95;;;13.00;99.90;;;;;;5102756;28;20279;-76
2021/10/23 09:47:35;;;;;;;692.25;629.25;;;13.00;99.90;;;;;;5103091;28;20217;-75
2021/10/23 09:50:11;;;;;;;691.65;628.45;;;13.10;99.90;;;;;;5103723;28;20208;-77
2021/10/23 09:52:56;;;;;;;680.72;618.60;;;13.10;99.90;;;;;;5103520;28;20954;-76
2021/10/23 09:55:23;;;;;;;688.70;626.15;;;13.20;99.90;;;;;;5101507;28;20571;-76
2021/10/23 09:58:06;;;;;;;628.90;568.47;;;13.10;99.90;;;;;;5102039;28;20231;-76
2021/10/23 10:00:34;;;;;;;689.13;626.67;;;13.10;99.90;;;;;;5102114;28;20279;-77
2021/10/23 10:08:18;;;;;;;692.47;627.97;;;13.00;99.90;;;;;;5114908;28;20263;-76
2021/10/23 10:10:48;;;;;;;663.22;599.58;;;13.00;99.90;;;;;;5118604;28;20210;-75
2021/10/23 10:13:17;;;;;;;674.13;610.72;;;13.00;99.90;;;;;;5116119;28;20204;-76
2021/10/23 10:15:45;;;;;;;683.45;620.80;;;13.00;99.90;;;;;;5118183;28;20208;-76
2021/10/23 10:18:15;;;;;;;679.30;615.60;;;13.10;99.90;;;;;;5115770;28;20200;-76
2021/10/23 10:20:44;;;;;;;674.60;612.00;;;13.10;99.90;;;;;;5117386;28;20655;-75
2021/10/23 10:23:12;;;;;;;696.97;632.42;;;13.00;99.90;;;;;;5117646;28;20249;-75
2021/10/23 10:25:40;;;;;;;638.00;576.22;;;13.00;99.90;;;;;;5118069;28;20225;-75
2021/10/23 10:28:13;;;;;;;663.75;600.28;;;13.00;99.90;;;;;;5118194;28;20219;-75
2021/10/23 10:30:42;;;;;;;636.80;574.80;;;13.00;99.90;;;;;;5116043;28;20288;-75
2021/10/23 10:33:24;;;;;;;698.35;633.45;;;13.00;99.90;;;;;;5117634;28;20206;-74
2021/10/23 10:36:18;;;;;;;618.13;555.55;;;13.00;99.90;;;;;;5117619;28;20244;-76
2021/10/23 10:44:19;;;;;;;694.60;629.85;;;13.20;99.90;;;;;;5116651;28;20232;-75
2021/10/23 10:47:11;;;;;;;664.58;600.60;;;13.20;99.90;;;;;;5116529;28;20204;-77
2021/10/23 10:49:54;;;;;;;640.08;578.45;;;13.20;99.90;;;;;;5114953;28;20265;-76
2021/10/23 10:52:53;;;;;;;690.38;626.17;;;13.20;99.90;;;;;;5115909;28;20231;-78
2021/10/23 10:55:22;;;;;;;648.00;586.65;;;13.20;99.90;;;;;;5115378;28;20199;-78
2021/10/23 10:58:05;;;;;;;696.55;634.33;;;13.20;99.90;;;;;;5117199;28;20199;-74
2021/10/23 11:01:09;;;;;;;675.72;613.65;;;13.20;99.90;;;;;;5114715;28;20207;-74
2021/10/23 11:03:38;;;;;;;691.38;629.35;;;13.20;99.90;;;;;;5116623;28;20258;-74
2021/10/23 11:06:54;;;;;;;705.22;642.05;;;13.10;99.90;;;;;;5116217;28;20207;-76
2021/10/23 11:09:44;;;;;;;680.63;618.58;;;13.30;99.90;;;;;;5115545;28;20257;-76
2021/10/23 11:12:27;;;;;;;639.53;578.53;;;13.40;99.90;;;;;;5114401;28;20203;-76
2021/10/23 11:14:56;;;;;;;683.28;620.13;;;13.40;99.90;;;;;;5108526;28;20204;-76
2021/10/23 11:17:24;;;;;;;624.58;565.78;;;13.50;99.90;;;;;;5102847;28;20196;-75
2021/10/23 11:19:54;;;;;;;646.88;586.80;;;13.60;99.90;;;;;;5102531;28;20818;-77
2021/10/23 11:22:24;;;;;;;642.03;582.40;;;13.60;99.90;;;;;;5100999;28;20200;-76
2021/10/23 11:24:55;;;;;;;639.80;580.92;;;13.70;99.90;;;;;;5100947;28;20227;-76
2021/10/23 11:27:43;;;;;;;678.72;618.67;;;13.80;99.90;;;;;;5101670;28;20238;-76
2021/10/23 11:30:15;;;;;;;639.20;579.70;;;13.80;99.90;;;;;;5095702;28;20745;-76
2021/10/23 11:32:45;;;;;;;730.00;667.80;;;13.80;99.90;;;;;;5084708;28;20268;-77
2021/10/23 11:37:54;;;;;;;718.72;657.38;;;13.90;99.90;;;;;;5104150;28;20296;-77
2021/10/23 11:40:21;;;;;;;718.90;657.70;;;13.90;99.90;;;;;;5102854;28;20253;-76
2021/10/23 11:42:49;;;;;;;672.35;612.10;;;13.90;99.90;;;;;;5101948;28;20237;-76
2021/10/23 11:45:21;;;;;;;739.25;678.10;;;14.00;99.90;;;;;;5101892;28;20208;-76
2021/10/23 11:47:49;;;;;;;740.53;679.05;;;14.10;99.90;;;;;;5100260;28;20197;-76
2021/10/23 11:50:24;;;;;;;759.67;698.25;;;14.20;99.90;;;;;;5102385;28;20256;-76
2021/10/23 11:52:59;;;;;;;743.28;681.85;;;14.30;99.90;;;;;;5102776;28;20215;-76
2021/10/23 11:55:37;;;;;;;742.28;680.83;;;14.40;99.90;;;;;;5101733;28;20204;-76
2021/10/23 11:58:06;;;;;;;698.03;637.97;;;14.40;99.90;;;;;;5100419;28;20297;-76
2021/10/23 12:00:40;;;;;;;779.65;717.50;;;14.50;99.90;;;;;;5102736;28;20647;-76
2021/10/23 12:03:09;;;;;;;778.15;715.78;;;14.50;99.90;;;;;;5102103;28;20248;-76
2021/10/23 12:05:45;;;;;;;720.33;659.60;;;14.50;99.90;;;;;;5101077;28;20222;-76
2021/10/23 12:08:28;;;;;;;780.65;719.40;;;14.50;99.90;;;;;;5101162;28;20199;-76
2021/10/23 12:11:10;;;;;;;767.63;706.10;;;14.50;99.90;;;;;;5100644;28;20344;-76
2021/10/23 12:13:52;;;;;;;774.97;713.00;;;14.50;99.90;;;;;;5101113;28;20209;-76
2021/10/23 12:16:42;;;;;;;782.10;720.17;;;14.50;99.90;;;;;;5099521;28;20205;-76
2021/10/23 12:19:17;;;;;;;757.90;696.38;;;14.60;99.90;;;;;;5099416;28;20353;-76
2021/10/23 12:21:47;;;;;;;752.70;691.92;;;14.60;99.90;;;;;;5101995;28;20266;-76
2021/10/23 12:24:32;;;;;;;753.70;692.45;;;14.70;99.90;;;;;;5101657;28;20229;-76
2021/10/23 12:27:19;;;;;;;788.00;726.53;;;14.70;99.90;;;;;;5100381;28;20207;-76
2021/10/23 12:29:48;;;;;;;782.42;720.67;;;14.80;99.90;;;;;;5101684;28;20209;-75
2021/10/23 12:32:19;;;;;;;795.95;734.53;;;14.80;99.90;;;;;;5101625;28;20228;-75
2021/10/23 12:34:59;;;;;;;776.05;714.90;;;14.80;99.90;;;;;;5100267;28;20217;-75
2021/10/23 12:37:44;;;;;;;778.55;717.47;;;14.80;99.90;;;;;;5101798;28;20704;-75